Startpagina
METAR-TAF:

METAR-TAF

Vliegvelden :

Kingston, Jamaica

Norman Manley International Airport

breedte: 17-56N, lengte: 076-47W, hoogte: 3 m

Actueel weer

Dit bericht is 29 minuten geleden gemaakt, om 03:00 UTC
Wind 11 kt uit het oostzuidoosten
Temperatuur 29°C
Vochtigheid 70%
Druk 1014 hPa
Zicht 10 km of meer
Weinig wolken op 2200 ft

METAR: MKJP 230300Z 12011KT 9999 FEW022 29/23 Q1014

Tijdstip: 22:29 (03:29 UTC)

Verwachting

Dit bericht is 4 uur en het 14 minuten geleden gemaakt, om 23:15 UTC
Verwachting geldig van 23 om 00 UTC tot 23 om 24 UTC
Wind 14 kt uit het zuidoosten
Zicht 10 km of meer
Weinig wolken op 2200 ft
Wijzigt naar
van 23 om 06 UTC tot 23 om 08 UTC
Wind 4 kt uit het noorden
Wijzigt naar
van 23 om 14 UTC tot 23 om 16 UTC
Wind 15 kt uit het zuidoosten
Verspreide wolken op 2000 ft
Weinig wolken op 2200 ft, Cumulonimbus.

TAF: MKJP 222315Z 2300/2324 13014KT 9999 FEW022 BECMG 2306/2308 01004KT BECMG 2314/2316 13015KT SCT020 FEW022CB

Waarnemingen en weersverwachtingen van meer dan 4000 vliegvelden (METAR en TAF).

De beschikbare stations zijn de gele en rode punten op de kaart.

Ga met uw muis naar het station om de naam te zien.

Klik dan om waarnemingen en weersverwachtingen te zien.

kaart wijzigen: klik op de groene knoppen met een zwart kruis om in te zoomen, op de groene knop met een streepje om uit te zoomen of op de groene pijlen voor aangrenzende kaarten.


METAR-TAF: